Time;durP1;ratioP1;P1;durP2;ratioP2;P2;SDS_P1;SDS_P2;PMS_P1;PMS_P2;Temp;Humidity;BMP_temperature;BMP_pressure;BME280_temperature;BME280_humidity;BME280_pressure;Samples;Min_cycle;Max_cycle;Signal;HPM_P1;HPM_P2
2021/12/14 00:01:11;;;;;;;7.85;1.45;;;;;;;;;;5098871;27;20142;-75
2021/12/14 00:03:40;;;;;;;8.27;1.58;;;;;;;;;;5096904;28;20054;-76
2021/12/14 00:06:06;;;;;;;5.15;1.60;;;;;;;;;;5101610;27;20044;-74
2021/12/14 00:08:37;;;;;;;6.63;1.40;;;;;;;;;;5097733;28;20020;-74
2021/12/14 00:13:58;;;;;;;6.57;1.00;;;;;;;;;;5099940;28;20537;-74
2021/12/14 00:16:17;;;;;;;4.22;1.20;;;;;;;;;;5101097;27;20035;-77
2021/12/14 00:18:44;;;;;;;7.75;1.15;;;;;;;;;;5101232;28;20039;-76
2021/12/14 00:21:20;;;;;;;8.25;1.40;;;;;;;;;;5107517;27;20503;-75
2021/12/14 00:24:07;;;;;;;7.18;1.35;;;;;;;;;;5104748;27;20038;-74
2021/12/14 00:26:41;;;;;;;5.82;1.80;;;;;;;;;;5103537;28;20035;-74
2021/12/14 00:29:08;;;;;;;9.80;1.85;;;;;;;;;;5107308;27;20023;-74
2021/12/14 00:31:36;;;;;;;4.95;1.08;;;;;;;;;;5090750;28;21610;-77
2021/12/14 00:34:04;;;;;;;8.98;1.27;;;;;;;;;;5101571;27;20023;-75
2021/12/14 00:36:31;;;;;;;5.07;1.08;;;;;;;;;;5110468;27;20103;-75
2021/12/14 00:38:58;;;;;;;5.05;1.60;;;;;;;;;;5104602;27;20042;-77
2021/12/14 00:41:26;;;;;;;4.35;0.90;;;;;;;;;;5107921;27;20102;-76
2021/12/14 00:43:53;;;;;;;8.70;1.48;;;;;;;;;;5105980;27;20054;-78
2021/12/14 00:46:19;;;;;;;5.93;1.10;;;;;;;;;;5107457;27;20031;-78
2021/12/14 00:48:46;;;;;;;7.32;1.33;;;;;;;;;;5098724;28;20020;-77
2021/12/14 00:51:12;;;;;;;7.22;1.30;;;;;;;;;;5104947;28;20030;-76
2021/12/14 00:53:40;;;;;;;4.30;1.23;;;;;;;;;;5099676;28;20469;-77
2021/12/14 00:56:07;;;;;;;11.80;1.25;;;;;;;;;;5104123;28;20028;-77
2021/12/14 00:58:35;;;;;;;6.93;1.25;;;;;;;;;;5100572;28;20036;-77
2021/12/14 01:01:03;;;;;;;6.10;1.77;;;;;;;;;;5103901;28;20017;-77
2021/12/14 01:03:31;;;;;;;5.47;1.00;;;;;;;;;;5100980;28;20024;-76
2021/12/14 01:05:58;;;;;;;5.60;1.05;;;;;;;;;;5105051;28;20398;-77
2021/12/14 01:08:28;;;;;;;8.05;1.25;;;;;;;;;;5085866;28;20379;-77
2021/12/14 01:11:03;;;;;;;7.07;1.52;;;;;;;;;;5100129;28;20024;-76
2021/12/14 01:13:31;;;;;;;5.10;1.30;;;;;;;;;;5100940;28;20032;-78
2021/12/14 01:16:47;;;;;;;4.53;1.83;;;;;;;;;;5100518;28;20024;-76
2021/12/14 01:19:18;;;;;;;6.05;1.23;;;;;;;;;;5103696;28;20035;-77
2021/12/14 01:24:35;;;;;;;4.68;0.90;;;;;;;;;;5103513;28;20023;-76
2021/12/14 01:27:03;;;;;;;7.97;1.20;;;;;;;;;;5097212;28;20020;-77
2021/12/14 01:29:30;;;;;;;7.43;1.70;;;;;;;;;;5103312;28;20020;-77
2021/12/14 01:32:00;;;;;;;13.40;1.67;;;;;;;;;;5101677;28;20721;-76
2021/12/14 01:34:27;;;;;;;5.40;1.10;;;;;;;;;;5103190;28;20379;-78
2021/12/14 01:36:57;;;;;;;6.32;1.33;;;;;;;;;;5100136;28;20032;-77
2021/12/14 01:41:57;;;;;;;7.38;1.88;;;;;;;;;;5100053;28;20036;-77
2021/12/14 01:44:25;;;;;;;8.63;1.63;;;;;;;;;;5099923;28;20036;-76
2021/12/14 01:46:55;;;;;;;5.78;1.50;;;;;;;;;;5099659;28;20028;-77
2021/12/14 01:49:23;;;;;;;5.78;1.73;;;;;;;;;;5099262;28;20032;-77
2021/12/14 01:51:51;;;;;;;10.45;1.98;;;;;;;;;;5101924;28;20061;-77
2021/12/14 01:54:19;;;;;;;7.05;2.08;;;;;;;;;;5101215;28;20149;-76
2021/12/14 01:56:45;;;;;;;8.32;1.88;;;;;;;;;;5102090;28;20031;-78
2021/12/14 01:59:14;;;;;;;4.35;1.50;;;;;;;;;;5101970;28;20051;-77
2021/12/14 02:04:35;;;;;;;7.70;1.60;;;;;;;;;;5072928;28;20075;-76
2021/12/14 02:07:03;;;;;;;8.88;1.58;;;;;;;;;;5096855;28;20024;-77
2021/12/14 02:09:30;;;;;;;6.18;1.10;;;;;;;;;;5105488;28;20083;-77
2021/12/14 02:11:59;;;;;;;8.25;1.50;;;;;;;;;;5099467;28;20024;-77
2021/12/14 02:14:26;;;;;;;9.90;1.90;;;;;;;;;;5102999;28;20051;-77
2021/12/14 02:16:54;;;;;;;12.50;2.53;;;;;;;;;;5081462;28;20028;-76
2021/12/14 02:19:20;;;;;;;4.88;1.00;;;;;;;;;;5102418;28;20493;-77
2021/12/14 02:21:48;;;;;;;3.83;1.50;;;;;;;;;;5100604;28;20031;-77
2021/12/14 02:24:19;;;;;;;7.60;1.75;;;;;;;;;;5098354;28;20020;-77
2021/12/14 02:26:45;;;;;;;7.57;1.60;;;;;;;;;;5102371;28;20053;-77
2021/12/14 02:29:21;;;;;;;10.23;1.42;;;;;;;;;;5098029;28;20486;-76
2021/12/14 02:31:47;;;;;;;7.45;1.40;;;;;;;;;;5099605;28;20121;-77
2021/12/14 02:34:14;;;;;;;10.40;2.05;;;;;;;;;;5100374;28;20027;-77
2021/12/14 02:36:42;;;;;;;9.18;1.92;;;;;;;;;;5101619;28;20107;-77
2021/12/14 02:39:22;;;;;;;6.63;1.65;;;;;;;;;;5101544;28;20423;-78
2021/12/14 02:41:50;;;;;;;6.05;1.77;;;;;;;;;;5099796;28;20011;-77
2021/12/14 02:44:17;;;;;;;8.02;1.60;;;;;;;;;;5098463;28;20025;-76
2021/12/14 02:46:45;;;;;;;7.93;1.70;;;;;;;;;;5101985;28;20024;-77
2021/12/14 02:49:14;;;;;;;8.40;2.03;;;;;;;;;;5101613;28;20106;-77
2021/12/14 02:51:43;;;;;;;9.77;1.60;;;;;;;;;;5101296;28;20380;-77
2021/12/14 02:54:13;;;;;;;6.22;1.58;;;;;;;;;;5101632;28;20028;-77
2021/12/14 02:56:42;;;;;;;7.32;1.80;;;;;;;;;;5101779;28;20028;-77
2021/12/14 02:59:10;;;;;;;9.27;1.67;;;;;;;;;;5100701;28;20039;-77
2021/12/14 03:01:37;;;;;;;9.95;1.48;;;;;;;;;;5102494;28;20031;-77
2021/12/14 03:04:04;;;;;;;6.85;1.65;;;;;;;;;;5104832;28;20076;-77
2021/12/14 03:06:32;;;;;;;8.75;2.33;;;;;;;;;;5106371;28;20035;-75
2021/12/14 03:09:17;;;;;;;4.88;1.88;;;;;;;;;;5087205;28;20111;-78
2021/12/14 03:11:44;;;;;;;6.50;1.90;;;;;;;;;;5088685;28;20028;-77
2021/12/14 03:14:14;;;;;;;10.43;1.70;;;;;;;;;;5102781;28;20478;-77
2021/12/14 03:16:40;;;;;;;9.25;1.30;;;;;;;;;;5093103;28;20019;-77
2021/12/14 03:19:08;;;;;;;4.63;1.10;;;;;;;;;;5082935;28;20044;-77
2021/12/14 03:21:36;;;;;;;5.47;1.33;;;;;;;;;;5104603;28;20055;-77
2021/12/14 03:24:07;;;;;;;6.95;1.88;;;;;;;;;;5101996;28;20119;-77
2021/12/14 03:26:34;;;;;;;11.93;1.70;;;;;;;;;;5103968;28;20535;-77
2021/12/14 03:29:05;;;;;;;10.20;2.00;;;;;;;;;;5102347;28;20055;-78
2021/12/14 03:31:39;;;;;;;10.95;1.55;;;;;;;;;;5101993;28;20582;-78
2021/12/14 03:34:32;;;;;;;7.00;1.73;;;;;;;;;;5084936;28;20028;-77
2021/12/14 03:37:06;;;;;;;9.77;1.83;;;;;;;;;;5101723;28;20032;-77
2021/12/14 03:39:32;;;;;;;7.55;1.50;;;;;;;;;;5103650;28;20506;-76
2021/12/14 03:42:11;;;;;;;5.35;1.20;;;;;;;;;;5104428;28;20027;-77
2021/12/14 03:44:40;;;;;;;13.45;1.73;;;;;;;;;;5100205;28;20031;-77
2021/12/14 03:47:16;;;;;;;6.55;1.52;;;;;;;;;;5100739;28;20027;-77
2021/12/14 03:49:44;;;;;;;8.27;1.50;;;;;;;;;;5100836;28;20024;-77
2021/12/14 03:52:11;;;;;;;8.68;1.67;;;;;;;;;;5077583;28;20077;-76
2021/12/14 03:54:38;;;;;;;10.50;1.70;;;;;;;;;;5086927;28;20058;-76
2021/12/14 03:57:04;;;;;;;8.43;1.95;;;;;;;;;;5096605;28;20522;-76
2021/12/14 03:59:31;;;;;;;9.75;1.98;;;;;;;;;;5099228;28;20028;-75
2021/12/14 04:01:59;;;;;;;7.78;1.55;;;;;;;;;;5095443;28;20030;-76
2021/12/14 04:04:27;;;;;;;19.77;1.70;;;;;;;;;;5096324;28;20557;-76
2021/12/14 04:06:56;;;;;;;4.88;0.93;;;;;;;;;;5090492;28;20046;-76
2021/12/14 04:09:24;;;;;;;9.02;1.20;;;;;;;;;;5091983;28;20022;-78
2021/12/14 04:11:50;;;;;;;4.13;1.15;;;;;;;;;;5088552;28;20122;-76
2021/12/14 04:14:16;;;;;;;7.07;1.70;;;;;;;;;;5092159;28;20043;-77
2021/12/14 04:16:44;;;;;;;3.35;1.20;;;;;;;;;;5095764;28;20028;-75
2021/12/14 04:19:13;;;;;;;5.43;1.27;;;;;;;;;;5104600;27;20050;-76
2021/12/14 04:21:41;;;;;;;5.57;1.50;;;;;;;;;;5096519;28;20016;-74
2021/12/14 04:24:08;;;;;;;5.68;1.52;;;;;;;;;;5093320;28;20518;-76
2021/12/14 04:26:35;;;;;;;9.07;1.40;;;;;;;;;;5093178;28;20111;-77
2021/12/14 04:29:05;;;;;;;7.15;1.10;;;;;;;;;;5091659;28;20023;-77
2021/12/14 04:31:35;;;;;;;5.78;1.00;;;;;;;;;;5075201;28;20606;-77
2021/12/14 04:34:03;;;;;;;4.95;1.00;;;;;;;;;;5091758;28;20031;-76
2021/12/14 04:36:30;;;;;;;4.13;1.58;;;;;;;;;;5093674;28;20547;-75
2021/12/14 04:39:02;;;;;;;3.47;1.38;;;;;;;;;;5094904;28;20158;-76
2021/12/14 04:52:36;;;;;;;7.43;1.77;;;;;;;;;;5094727;28;20041;-76
2021/12/14 04:55:07;;;;;;;3.92;1.52;;;;;;;;;;5092162;28;20023;-76
2021/12/14 04:57:41;;;;;;;9.40;1.23;;;;;;;;;;5088204;28;20492;-76
2021/12/14 05:00:26;;;;;;;3.20;0.98;;;;;;;;;;5092509;28;20031;-76
2021/12/14 05:02:53;;;;;;;6.78;1.48;;;;;;;;;;5090263;28;20251;-77
2021/12/14 05:05:29;;;;;;;12.25;2.13;;;;;;;;;;5087667;28;20513;-74
2021/12/14 05:10:39;;;;;;;6.65;1.30;;;;;;;;;;5091738;28;20032;-74
2021/12/14 05:13:05;;;;;;;5.10;1.50;;;;;;;;;;5092549;28;20119;-75
2021/12/14 05:15:32;;;;;;;4.75;1.40;;;;;;;;;;5093320;28;20572;-75
2021/12/14 05:17:58;;;;;;;5.25;1.50;;;;;;;;;;5092576;28;20032;-76
2021/12/14 05:20:24;;;;;;;5.47;1.60;;;;;;;;;;5092581;28;20092;-75
2021/12/14 05:22:50;;;;;;;5.97;1.58;;;;;;;;;;5093639;28;20031;-76
2021/12/14 05:25:26;;;;;;;7.25;1.60;;;;;;;;;;5087817;28;20055;-75
2021/12/14 05:27:56;;;;;;;5.43;1.63;;;;;;;;;;5072279;28;20036;-75
2021/12/14 05:30:33;;;;;;;8.32;1.73;;;;;;;;;;5089467;28;20028;-76
2021/12/14 05:33:02;;;;;;;6.25;1.55;;;;;;;;;;5089023;28;20039;-76
2021/12/14 05:35:28;;;;;;;6.95;1.40;;;;;;;;;;5092712;28;20031;-76
2021/12/14 05:37:56;;;;;;;5.13;1.50;;;;;;;;;;5089742;28;20476;-76
2021/12/14 05:43:05;;;;;;;7.90;1.70;;;;;;;;;;5088906;28;20507;-76
2021/12/14 05:43:17;;;;;;;10.25;1.90;;;;;;;;;;5085771;28;20393;-76
2021/12/14 05:45:54;;;;;;;5.15;1.52;;;;;;;;;;5092106;28;20032;-76
2021/12/14 05:48:21;;;;;;;4.95;2.30;;;;;;;;;;5078320;28;20382;-77
2021/12/14 05:50:51;;;;;;;5.85;1.48;;;;;;;;;;5097801;28;20049;-76
2021/12/14 05:53:21;;;;;;;5.97;1.92;;;;;;;;;;5093909;28;20032;-76
2021/12/14 05:55:48;;;;;;;6.65;1.95;;;;;;;;;;5094564;28;20023;-76
2021/12/14 05:58:20;;;;;;;7.60;1.92;;;;;;;;;;5091684;28;20680;-76
2021/12/14 06:00:48;;;;;;;6.22;1.67;;;;;;;;;;5091214;28;20020;-76
2021/12/14 06:03:16;;;;;;;5.65;1.58;;;;;;;;;;5091634;28;20546;-76
2021/12/14 06:05:42;;;;;;;5.15;1.40;;;;;;;;;;5091142;28;20100;-76
2021/12/14 06:08:09;;;;;;;4.75;1.67;;;;;;;;;;5091919;28;20028;-74
2021/12/14 06:10:35;;;;;;;8.65;1.70;;;;;;;;;;5091578;28;20062;-74
2021/12/14 06:13:01;;;;;;;6.00;1.67;;;;;;;;;;5091771;28;20470;-75
2021/12/14 06:15:29;;;;;;;4.88;1.40;;;;;;;;;;5091000;28;20023;-77
2021/12/14 06:17:55;;;;;;;4.57;1.73;;;;;;;;;;5095031;28;20039;-76
2021/12/14 06:20:23;;;;;;;5.40;1.70;;;;;;;;;;5093789;28;20020;-76
2021/12/14 06:22:52;;;;;;;12.90;1.70;;;;;;;;;;5093518;28;20590;-76
2021/12/14 06:25:20;;;;;;;6.63;1.40;;;;;;;;;;5092590;28;20024;-75
2021/12/14 06:27:47;;;;;;;6.90;1.88;;;;;;;;;;5094119;28;20044;-75
2021/12/14 06:30:15;;;;;;;12.95;2.20;;;;;;;;;;5071631;28;20501;-76
2021/12/14 06:32:44;;;;;;;4.00;1.40;;;;;;;;;;5090304;28;20024;-76
2021/12/14 06:35:20;;;;;;;5.35;1.75;;;;;;;;;;5090193;28;20055;-76
2021/12/14 06:38:21;;;;;;;7.35;1.88;;;;;;;;;;5095809;28;20039;-75
2021/12/14 06:41:02;;;;;;;4.60;1.47;;;;;;;;;;5097040;28;20269;-75
2021/12/14 06:43:34;;;;;;;7.60;1.95;;;;;;;;;;5102082;28;20201;-74
2021/12/14 06:46:02;;;;;;;4.25;1.42;;;;;;;;;;5095874;28;20555;-74
2021/12/14 06:48:34;;;;;;;6.78;1.98;;;;;;;;;;5096095;28;20483;-75
2021/12/14 06:51:09;;;;;;;6.03;2.10;;;;;;;;;;5095971;28;20086;-76
2021/12/14 06:53:37;;;;;;;4.45;1.88;;;;;;;;;;5075366;28;20036;-75
2021/12/14 06:56:05;;;;;;;8.30;2.80;;;;;;;;;;5096128;28;20167;-76
2021/12/14 06:58:33;;;;;;;4.15;2.28;;;;;;;;;;5091132;28;20174;-75
2021/12/14 07:01:00;;;;;;;7.75;2.95;;;;;;;;;;5092327;28;20027;-74
2021/12/14 07:03:55;;;;;;;5.43;2.60;;;;;;;;;;5091380;28;20115;-73
2021/12/14 07:18:26;;;;;;;9.30;3.40;;;;;;;;;;5109721;27;20336;-73
2021/12/14 07:20:52;;;;;;;6.43;3.22;;;;;;;;;;5103551;28;20031;-76
2021/12/14 07:23:21;;;;;;;6.30;2.65;;;;;;;;;;5105613;28;20111;-74
2021/12/14 07:26:07;;;;;;;6.97;2.30;;;;;;;;;;5101237;28;20039;-75
2021/12/14 07:28:38;;;;;;;4.60;1.92;;;;;;;;;;5095334;28;20127;-80
2021/12/14 07:33:44;;;;;;;13.07;2.88;;;;;;;;;;4197168;22;20128;-79
2021/12/14 07:36:12;;;;;;;9.35;2.40;;;;;;;;;;5020039;28;20162;-82
2021/12/14 07:38:52;;;;;;;8.85;2.70;;;;;;;;;;5012372;28;20084;-78
2021/12/14 07:41:18;;;;;;;5.63;1.95;;;;;;;;;;5014236;28;20026;-76
2021/12/14 07:43:50;;;;;;;9.90;2.65;;;;;;;;;;5007958;28;20114;-80
2021/12/14 07:46:21;;;;;;;7.30;2.22;;;;;;;;;;5005056;28;20030;-75
2021/12/14 07:48:49;;;;;;;9.23;2.85;;;;;;;;;;5003462;28;20121;-79
2021/12/14 07:51:16;;;;;;;9.73;2.70;;;;;;;;;;5005885;28;20026;-78
2021/12/14 07:53:45;;;;;;;7.90;2.03;;;;;;;;;;5004563;28;20113;-75
2021/12/14 07:56:24;;;;;;;8.90;2.83;;;;;;;;;;5010655;28;20050;-76
2021/12/14 07:58:50;;;;;;;7.65;2.58;;;;;;;;;;5005725;28;20370;-80
2021/12/14 08:01:16;;;;;;;13.10;2.53;;;;;;;;;;5008728;28;20080;-74
2021/12/14 08:03:43;;;;;;;9.57;2.20;;;;;;;;;;5004983;28;20117;-81
2021/12/14 08:06:11;;;;;;;7.43;2.00;;;;;;;;;;5014668;28;20038;-76
2021/12/14 08:08:53;;;;;;;5.47;1.98;;;;;;;;;;5004649;28;20030;-79
2021/12/14 08:14:04;;;;;;;5.13;2.13;;;;;;;;;;5004398;28;20045;-80
2021/12/14 08:16:48;;;;;;;8.23;2.40;;;;;;;;;;5005509;28;20030;-73
2021/12/14 08:19:23;;;;;;;8.95;2.25;;;;;;;;;;5000208;28;20199;-81
2021/12/14 08:21:50;;;;;;;7.10;2.55;;;;;;;;;;4992145;28;20022;-80
2021/12/14 08:24:17;;;;;;;4.07;1.80;;;;;;;;;;4991791;28;20041;-76
2021/12/14 08:26:45;;;;;;;5.38;1.80;;;;;;;;;;4998519;28;20125;-77
2021/12/14 08:29:17;;;;;;;8.20;2.20;;;;;;;;;;4992126;28;20102;-79
2021/12/14 08:32:06;;;;;;;7.05;1.88;;;;;;;;;;5004138;28;20548;-78
2021/12/14 08:34:34;;;;;;;8.25;2.25;;;;;;;;;;5006487;28;20037;-73
2021/12/14 08:37:08;;;;;;;9.75;2.65;;;;;;;;;;4991349;28;20038;-78
2021/12/14 08:39:56;;;;;;;7.22;2.85;;;;;;;;;;5004122;28;20032;-80
2021/12/14 08:42:36;;;;;;;11.88;3.40;;;;;;;;;;5001295;28;20390;-73
2021/12/14 08:45:24;;;;;;;7.88;3.38;;;;;;;;;;4999150;28;20030;-80
2021/12/14 08:47:52;;;;;;;9.95;3.20;;;;;;;;;;5000338;28;20101;-81
2021/12/14 08:50:19;;;;;;;11.15;2.80;;;;;;;;;;4993293;28;20034;-81
2021/12/14 08:52:45;;;;;;;10.52;2.40;;;;;;;;;;5003212;28;20092;-73
2021/12/14 08:55:15;;;;;;;9.85;2.03;;;;;;;;;;5005377;28;20023;-79
2021/12/14 08:57:42;;;;;;;7.20;1.83;;;;;;;;;;4992928;28;20022;-80
2021/12/14 09:00:12;;;;;;;8.32;2.63;;;;;;;;;;5004516;28;20033;-79
2021/12/14 09:02:40;;;;;;;6.85;2.08;;;;;;;;;;5016780;28;20052;-77
2021/12/14 09:05:06;;;;;;;7.57;2.42;;;;;;;;;;4996696;28;20145;-80
2021/12/14 09:07:33;;;;;;;5.40;1.90;;;;;;;;;;5006555;28;20041;-72
2021/12/14 09:10:01;;;;;;;9.50;3.08;;;;;;;;;;4992525;28;20593;-72
2021/12/14 09:12:27;;;;;;;11.18;3.33;;;;;;;;;;4992520;28;20462;-71
2021/12/14 09:14:55;;;;;;;9.05;2.80;;;;;;;;;;4990761;28;20537;-80
2021/12/14 09:17:22;;;;;;;6.80;2.28;;;;;;;;;;5000684;28;20045;-80
2021/12/14 09:20:03;;;;;;;6.82;1.90;;;;;;;;;;5008274;28;20023;-75
2021/12/14 09:22:31;;;;;;;5.43;2.50;;;;;;;;;;4993139;28;20030;-73
2021/12/14 09:24:58;;;;;;;9.20;2.47;;;;;;;;;;4990661;28;20438;-72
2021/12/14 09:27:28;;;;;;;9.52;3.30;;;;;;;;;;4991246;28;20038;-75
2021/12/14 09:29:55;;;;;;;8.80;2.72;;;;;;;;;;4998473;28;20026;-72
2021/12/14 09:32:27;;;;;;;10.70;2.92;;;;;;;;;;4992197;28;20057;-80
2021/12/14 09:34:53;;;;;;;9.02;2.45;;;;;;;;;;5000104;28;20050;-72
2021/12/14 09:37:20;;;;;;;8.32;2.47;;;;;;;;;;4998890;28;20385;-74
2021/12/14 09:39:51;;;;;;;5.55;2.13;;;;;;;;;;5004554;28;20088;-74
2021/12/14 09:42:20;;;;;;;10.48;4.18;;;;;;;;;;4997612;28;20062;-74
2021/12/14 09:44:47;;;;;;;12.82;4.97;;;;;;;;;;4993835;28;20041;-81
2021/12/14 09:47:16;;;;;;;10.73;5.78;;;;;;;;;;4999180;28;20037;-76
2021/12/14 09:49:44;;;;;;;13.60;5.82;;;;;;;;;;4995079;28;20025;-73
2021/12/14 09:52:13;;;;;;;15.48;7.68;;;;;;;;;;4991943;28;20037;-77
2021/12/14 09:54:40;;;;;;;24.38;10.65;;;;;;;;;;4988812;28;20050;-74
2021/12/14 09:57:09;;;;;;;16.23;7.20;;;;;;;;;;4991800;28;20041;-80
2021/12/14 09:59:36;;;;;;;22.25;7.13;;;;;;;;;;5000096;28;20038;-82
2021/12/14 10:02:17;;;;;;;8.05;4.45;;;;;;;;;;5000027;28;20371;-83
2021/12/14 10:04:46;;;;;;;10.85;3.60;;;;;;;;;;4990025;28;20058;-78
2021/12/14 10:07:12;;;;;;;8.32;2.85;;;;;;;;;;4991879;28;21422;-81
2021/12/14 10:09:44;;;;;;;12.88;3.88;;;;;;;;;;4991772;28;20105;-80
2021/12/14 10:12:48;;;;;;;12.75;4.07;;;;;;;;;;4991187;28;20524;-72
2021/12/14 10:15:34;;;;;;;10.90;3.80;;;;;;;;;;4990916;28;20034;-74
2021/12/14 10:18:08;;;;;;;8.25;4.00;;;;;;;;;;4988664;28;20046;-74
2021/12/14 10:20:41;;;;;;;11.25;4.25;;;;;;;;;;4991604;28;20422;-74
2021/12/14 10:23:10;;;;;;;15.55;6.25;;;;;;;;;;4990707;28;20034;-83
2021/12/14 10:25:37;;;;;;;8.15;4.03;;;;;;;;;;4993430;28;20030;-81
2021/12/14 10:28:03;;;;;;;14.48;5.57;;;;;;;;;;5010311;28;20421;-80
2021/12/14 10:30:35;;;;;;;11.50;5.05;;;;;;;;;;4991208;28;20035;-74
2021/12/14 10:33:02;;;;;;;15.73;4.63;;;;;;;;;;5006154;28;20451;-74
2021/12/14 10:35:46;;;;;;;10.23;3.78;;;;;;;;;;5000281;28;20901;-77
2021/12/14 10:38:30;;;;;;;10.13;3.88;;;;;;;;;;5005270;28;20034;-73
2021/12/14 10:44:01;;;;;;;6.85;3.17;;;;;;;;;;5003118;28;20040;-73
2021/12/14 10:46:33;;;;;;;6.97;3.03;;;;;;;;;;5001530;28;20034;-81
2021/12/14 10:48:59;;;;;;;6.75;3.22;;;;;;;;;;4995161;28;20073;-82
2021/12/14 10:51:27;;;;;;;10.63;3.10;;;;;;;;;;4990025;28;20501;-81
2021/12/14 10:53:55;;;;;;;8.90;2.30;;;;;;;;;;4993762;28;20030;-74
2021/12/14 10:56:24;;;;;;;9.35;2.30;;;;;;;;;;5004737;28;20033;-74
2021/12/14 10:58:52;;;;;;;7.93;2.30;;;;;;;;;;5000097;28;20037;-86
2021/12/14 11:01:26;;;;;;;7.40;2.20;;;;;;;;;;4991382;28;20031;-85
2021/12/14 11:03:56;;;;;;;7.85;2.00;;;;;;;;;;4995150;28;20108;-87
2021/12/14 11:06:28;;;;;;;14.32;2.63;;;;;;;;;;4992979;28;20109;-84
2021/12/14 11:09:39;;;;;;;9.85;2.33;;;;;;;;;;4989835;28;20861;-87
2021/12/14 11:11:51;;;;;;;9.68;2.47;;;;;;;;;;4998442;28;20049;-79
2021/12/14 11:14:20;;;;;;;8.52;2.38;;;;;;;;;;4983912;28;20014;-85
2021/12/14 11:19:39;;;;;;;6.50;2.17;;;;;;;;;;4995442;28;20487;-80
2021/12/14 11:22:12;;;;;;;6.85;1.75;;;;;;;;;;4985463;28;20642;-85
2021/12/14 11:24:39;;;;;;;5.25;1.77;;;;;;;;;;4986478;28;20329;-82
2021/12/14 11:27:20;;;;;;;11.43;2.72;;;;;;;;;;4985437;28;20038;-87
2021/12/14 11:29:50;;;;;;;7.63;2.13;;;;;;;;;;4997624;28;20068;-86
2021/12/14 11:32:19;;;;;;;7.18;2.20;;;;;;;;;;4984016;28;20030;-89
2021/12/14 11:34:46;;;;;;;6.38;1.70;;;;;;;;;;4990994;28;20061;-89
2021/12/14 11:37:16;;;;;;;9.07;2.72;;;;;;;;;;4984938;28;20030;-90
2021/12/14 11:39:47;;;;;;;9.15;2.45;;;;;;;;;;4984524;28;20065;-89
2021/12/14 11:42:21;;;;;;;9.25;2.05;;;;;;;;;;4990337;28;20092;-87
2021/12/14 11:44:53;;;;;;;10.85;2.20;;;;;;;;;;4984086;28;20034;-87
2021/12/14 11:50:01;;;;;;;7.18;1.73;;;;;;;;;;4983870;28;20034;-87
2021/12/14 11:52:33;;;;;;;9.05;2.13;;;;;;;;;;5000044;28;20375;-82
2021/12/14 11:55:00;;;;;;;6.47;2.15;;;;;;;;;;4985452;28;20038;-88
2021/12/14 11:57:32;;;;;;;8.50;2.25;;;;;;;;;;4985962;28;20062;-84
2021/12/14 12:00:10;;;;;;;6.68;1.85;;;;;;;;;;4986695;28;20368;-87
2021/12/14 12:02:36;;;;;;;6.45;1.73;;;;;;;;;;4989080;28;20074;-74
2021/12/14 12:05:19;;;;;;;12.68;2.20;;;;;;;;;;4992355;28;20034;-86
2021/12/14 12:10:46;;;;;;;6.25;2.17;;;;;;;;;;4992562;28;20041;-79
2021/12/14 12:13:13;;;;;;;7.20;1.92;;;;;;;;;;4988435;28;20034;-88
2021/12/14 12:15:42;;;;;;;9.15;2.63;;;;;;;;;;4996530;28;20352;-75
2021/12/14 12:18:09;;;;;;;9.45;2.67;;;;;;;;;;4996771;28;20017;-73
2021/12/14 12:20:38;;;;;;;10.43;3.28;;;;;;;;;;4988452;28;20037;-77
2021/12/14 12:23:06;;;;;;;7.55;3.03;;;;;;;;;;4994292;28;20018;-85
2021/12/14 12:25:35;;;;;;;5.55;2.58;;;;;;;;;;4987176;28;20026;-89
2021/12/14 12:28:07;;;;;;;4.75;2.38;;;;;;;;;;4989848;28;20129;-73
2021/12/14 12:30:46;;;;;;;10.32;3.28;;;;;;;;;;4998345;28;20310;-90
2021/12/14 12:33:15;;;;;;;8.07;3.20;;;;;;;;;;4993155;28;20031;-88
2021/12/14 12:35:44;;;;;;;9.48;2.40;;;;;;;;;;4994375;28;20030;-73
2021/12/14 12:38:23;;;;;;;8.50;2.95;;;;;;;;;;4984423;28;20034;-88
2021/12/14 12:40:52;;;;;;;7.22;2.15;;;;;;;;;;4984321;28;20034;-86
2021/12/14 12:43:21;;;;;;;9.45;2.55;;;;;;;;;;4983818;28;20117;-89
2021/12/14 12:45:56;;;;;;;5.22;2.13;;;;;;;;;;5000010;28;20030;-86
2021/12/14 12:48:43;;;;;;;6.35;2.30;;;;;;;;;;4998175;28;20435;-74
2021/12/14 12:51:10;;;;;;;6.55;1.70;;;;;;;;;;4995346;28;20130;-76
2021/12/14 12:53:36;;;;;;;9.38;2.15;;;;;;;;;;4996863;28;20029;-73
2021/12/14 12:56:12;;;;;;;9.65;2.45;;;;;;;;;;4982802;28;20334;-73
2021/12/14 12:58:42;;;;;;;7.13;2.00;;;;;;;;;;4998404;28;20569;-82
2021/12/14 13:01:08;;;;;;;7.88;2.20;;;;;;;;;;4993399;28;20022;-80
2021/12/14 13:03:36;;;;;;;7.32;2.35;;;;;;;;;;5000106;28;20568;-80
2021/12/14 13:06:14;;;;;;;7.82;2.15;;;;;;;;;;4990023;28;20614;-72
2021/12/14 13:08:40;;;;;;;7.80;1.92;;;;;;;;;;4988734;28;20093;-73
2021/12/14 13:11:17;;;;;;;6.15;2.00;;;;;;;;;;4985732;28;20058;-70
2021/12/14 13:13:48;;;;;;;7.07;2.17;;;;;;;;;;4981900;28;20034;-72
2021/12/14 13:16:22;;;;;;;10.85;2.70;;;;;;;;;;4986264;28;20169;-78
2021/12/14 13:18:48;;;;;;;9.65;1.95;;;;;;;;;;4985497;28;20022;-74
2021/12/14 13:21:20;;;;;;;7.07;2.35;;;;;;;;;;4996423;28;20030;-73
2021/12/14 13:23:46;;;;;;;;;;;;;;;;;;4993810;28;20104;-75
2021/12/14 13:26:21;;;;;;;9.23;2.78;;;;;;;;;;4998365;28;19921;-73
2021/12/14 13:28:48;;;;;;;7.40;2.90;;;;;;;;;;4981665;28;20058;-72
2021/12/14 13:31:26;;;;;;;15.57;4.82;;;;;;;;;;4981111;28;20525;-74
2021/12/14 13:33:52;;;;;;;9.52;3.45;;;;;;;;;;4988726;28;20161;-73
2021/12/14 13:36:18;;;;;;;11.23;4.65;;;;;;;;;;4980966;28;20236;-75
2021/12/14 13:38:45;;;;;;;10.63;6.20;;;;;;;;;;4979700;28;20426;-78
2021/12/14 13:41:28;;;;;;;9.95;5.63;;;;;;;;;;4980356;28;20210;-80
2021/12/14 13:43:54;;;;;;;12.00;5.50;;;;;;;;;;4982058;28;20188;-74
2021/12/14 13:46:21;;;;;;;11.80;5.53;;;;;;;;;;4981151;28;20022;-74
2021/12/14 13:48:47;;;;;;;9.68;4.55;;;;;;;;;;4984133;28;20505;-78
2021/12/14 13:51:15;;;;;;;9.20;2.92;;;;;;;;;;4983224;28;20045;-78
2021/12/14 13:53:42;;;;;;;9.32;2.58;;;;;;;;;;4980751;28;20286;-77
2021/12/14 13:56:21;;;;;;;8.52;2.97;;;;;;;;;;4986866;28;20379;-73
2021/12/14 13:58:47;;;;;;;11.95;2.90;;;;;;;;;;4984889;28;20425;-73
2021/12/14 14:01:21;;;;;;;8.52;2.97;;;;;;;;;;4980883;28;20282;-74
2021/12/14 14:03:50;;;;;;;7.60;2.42;;;;;;;;;;4992564;28;20293;-73
2021/12/14 14:06:18;;;;;;;9.82;3.15;;;;;;;;;;4984461;28;20035;-74
2021/12/14 14:08:46;;;;;;;11.63;3.35;;;;;;;;;;4995752;28;20026;-77
2021/12/14 14:11:15;;;;;;;7.15;3.00;;;;;;;;;;4984942;28;20503;-75
2021/12/14 14:13:42;;;;;;;10.48;3.78;;;;;;;;;;4991135;28;20029;-73
2021/12/14 14:16:08;;;;;;;6.25;2.70;;;;;;;;;;4985041;28;20202;-74
2021/12/14 14:18:38;;;;;;;12.55;3.88;;;;;;;;;;4979662;28;20033;-73
2021/12/14 14:21:06;;;;;;;19.92;4.45;;;;;;;;;;4986303;28;20598;-75
2021/12/14 14:23:38;;;;;;;12.50;4.80;;;;;;;;;;4986834;28;20018;-79
2021/12/14 14:26:07;;;;;;;17.73;5.93;;;;;;;;;;4986196;28;20026;-72
2021/12/14 14:28:40;;;;;;;9.40;4.60;;;;;;;;;;4988003;28;20389;-73
2021/12/14 14:31:07;;;;;;;8.65;3.72;;;;;;;;;;4992954;28;20029;-73
2021/12/14 14:33:50;;;;;;;11.95;3.03;;;;;;;;;;4988729;28;20049;-75
2021/12/14 14:36:29;;;;;;;12.52;3.55;;;;;;;;;;4984051;28;20683;-77
2021/12/14 14:39:06;;;;;;;11.15;3.58;;;;;;;;;;4987303;28;20497;-73
2021/12/14 14:41:38;;;;;;;10.05;3.30;;;;;;;;;;4980121;28;20030;-76
2021/12/14 14:44:09;;;;;;;12.10;2.88;;;;;;;;;;4984153;28;20030;-79
2021/12/14 14:46:38;;;;;;;9.63;2.38;;;;;;;;;;4982134;28;20023;-75
2021/12/14 14:49:08;;;;;;;6.25;2.17;;;;;;;;;;4982091;28;20514;-73
2021/12/14 14:51:45;;;;;;;14.30;2.60;;;;;;;;;;4989981;28;20049;-73
2021/12/14 14:54:30;;;;;;;6.50;2.15;;;;;;;;;;4984487;28;20052;-76
2021/12/14 14:56:56;;;;;;;9.20;3.03;;;;;;;;;;4982748;28;20030;-79
2021/12/14 14:59:22;;;;;;;7.25;2.33;;;;;;;;;;4983811;28;20105;-73
2021/12/14 15:01:48;;;;;;;11.38;3.50;;;;;;;;;;4987796;28;20105;-72
2021/12/14 15:04:15;;;;;;;7.75;2.60;;;;;;;;;;4983964;28;20036;-73
2021/12/14 15:06:43;;;;;;;8.52;2.35;;;;;;;;;;4988893;28;20042;-74
2021/12/14 15:09:13;;;;;;;5.72;2.00;;;;;;;;;;4990612;28;20520;-73
2021/12/14 15:11:49;;;;;;;7.32;2.08;;;;;;;;;;4987362;28;20030;-74
2021/12/14 15:14:42;;;;;;;17.08;2.88;;;;;;;;;;4992184;28;20022;-75
2021/12/14 15:17:17;;;;;;;13.30;2.50;;;;;;;;;;4985408;28;20122;-76
2021/12/14 15:19:45;;;;;;;8.75;2.92;;;;;;;;;;4987722;28;20533;-74
2021/12/14 15:22:21;;;;;;;11.63;2.75;;;;;;;;;;4993887;28;20033;-73
2021/12/14 15:24:48;;;;;;;18.70;2.33;;;;;;;;;;4993275;28;20033;-75
2021/12/14 15:27:15;;;;;;;6.57;2.05;;;;;;;;;;4987203;28;20034;-76
2021/12/14 15:29:54;;;;;;;9.00;2.33;;;;;;;;;;4998022;28;20022;-73
2021/12/14 15:32:21;;;;;;;5.22;1.83;;;;;;;;;;4994190;28;20026;-75
2021/12/14 15:34:56;;;;;;;12.27;2.95;;;;;;;;;;4983090;28;20069;-75
2021/12/14 15:37:32;;;;;;;10.68;2.40;;;;;;;;;;4981057;28;20026;-73
2021/12/14 15:39:58;;;;;;;6.38;2.33;;;;;;;;;;4982370;28;20417;-73
2021/12/14 15:42:24;;;;;;;7.07;1.88;;;;;;;;;;4983311;28;20022;-74
2021/12/14 15:44:51;;;;;;;6.35;1.98;;;;;;;;;;4990991;28;20041;-73
2021/12/14 15:47:17;;;;;;;7.22;2.15;;;;;;;;;;4999761;28;20038;-76
2021/12/14 15:49:43;;;;;;;7.93;1.90;;;;;;;;;;4993863;28;20413;-73
2021/12/14 15:52:14;;;;;;;6.80;1.63;;;;;;;;;;4985754;28;20034;-80
2021/12/14 15:54:41;;;;;;;6.80;1.90;;;;;;;;;;4991765;28;20038;-79